Time;durP1;ratioP1;P1;durP2;ratioP2;P2;SDS_P1;SDS_P2;PMS_P1;PMS_P2;Temp;Humidity;BMP_temperature;BMP_pressure;BME280_temperature;BME280_humidity;BME280_pressure;Samples;Min_cycle;Max_cycle;Signal;HPM_P1;HPM_P2
2022/05/19 06:34:16;;;;;;;2.70;1.50;;;;;;;21.28;51.01;99391.38;5162157;27;20167;-77
2022/05/19 06:36:42;;;;;;;2.83;1.33;;;;;;;21.25;51.28;99400.19;5171018;27;20050;-77
2022/05/19 06:39:09;;;;;;;3.05;2.20;;;;;;;21.32;51.53;99384.28;5168071;27;20057;-77
2022/05/19 06:44:20;;;;;;;5.78;1.85;;;;;;;21.76;50.22;99410.47;5148878;27;20535;-77
2022/05/19 06:46:48;;;;;;;6.75;1.75;;;;;;;21.77;49.05;99401.91;5162391;27;20039;-77
2022/05/19 06:49:17;;;;;;;3.97;1.88;;;;;;;21.63;50.04;99406.94;5171721;27;20722;-76
2022/05/19 06:51:44;;;;;;;4.28;1.63;;;;;;;21.70;50.37;99392.94;5172288;27;20462;-77
2022/05/19 06:54:11;;;;;;;7.00;1.85;;;;;;;22.09;50.43;99410.41;5170397;27;20374;-77
2022/05/19 06:56:37;;;;;;;6.22;1.90;;;;;;;21.96;50.26;99410.75;5155255;27;20466;-77
2022/05/19 06:59:04;;;;;;;2.90;1.80;;;;;;;22.61;49.85;99409.19;5165844;27;20058;-78
2022/05/19 07:01:30;;;;;;;3.08;1.70;;;;;;;22.65;48.81;99389.28;5154927;27;20047;-76
2022/05/19 07:03:57;;;;;;;6.50;1.90;;;;;;;22.83;49.18;99379.78;5147838;27;20050;-76
2022/05/19 07:06:25;;;;;;;8.40;2.15;;;;;;;22.98;48.79;99408.50;5141805;27;20050;-76
2022/05/19 07:08:52;;;;;;;4.85;1.67;;;;;;;23.33;46.95;99406.38;5145573;27;20047;-76
2022/05/19 07:11:30;;;;;;;3.92;1.85;;;;;;;23.10;47.69;99413.09;5143061;27;20482;-76
2022/05/19 07:13:59;;;;;;;4.68;1.83;;;;;;;23.26;49.80;99389.09;5137483;27;20043;-76
2022/05/19 07:16:26;;;;;;;7.43;1.90;;;;;;;23.60;48.25;99389.69;5145182;27;20082;-76
2022/05/19 07:20:43;;;;;;;7.00;1.85;;;;;;;23.78;47.30;99398.69;5149296;27;20051;-75
2022/05/19 07:21:42;;;;;;;2.60;1.73;;;;;;;24.01;47.57;99403.03;5146790;27;20049;-76
2022/05/19 07:24:09;;;;;;;;;;;;;;;23.89;46.12;99406.00;5137156;27;20137;-76
2022/05/19 07:26:36;;;;;;;7.13;1.50;;;;;;;23.73;46.45;99404.22;5150571;27;19923;-76
2022/05/19 07:29:02;;;;;;;3.17;1.40;;;;;;;24.07;48.19;99403.91;5150670;27;20375;-76
2022/05/19 07:31:29;;;;;;;2.03;1.40;;;;;;;24.18;45.09;99369.56;5150139;27;20077;-76
2022/05/19 07:33:55;;;;;;;4.05;1.38;;;;;;;24.34;45.52;99390.75;5140962;27;20091;-77
2022/05/19 07:36:22;;;;;;;8.02;2.00;;;;;;;24.60;47.01;99402.00;5150561;27;20043;-76
2022/05/19 07:38:50;;;;;;;2.80;1.40;;;;;;;24.61;46.05;99406.44;5150450;27;20128;-76
2022/05/19 07:41:17;;;;;;;3.38;2.00;;;;;;;24.58;45.92;99368.09;5150332;27;20047;-77
2022/05/19 07:43:43;;;;;;;2.80;1.85;;;;;;;24.85;45.49;99397.63;5146328;27;20146;-77
2022/05/19 07:46:11;;;;;;;9.07;1.92;;;;;;;24.30;47.18;99383.22;5134023;27;20134;-76
2022/05/19 07:48:38;;;;;;;2.92;1.75;;;;;;;24.71;47.14;99392.59;5133061;27;20067;-76
2022/05/19 07:51:05;;;;;;;10.77;1.80;;;;;;;24.38;44.69;99369.63;5114595;27;20543;-76
2022/05/19 07:53:32;;;;;;;6.63;1.73;;;;;;;24.56;45.71;99403.63;5113218;28;20047;-76
2022/05/19 07:56:00;;;;;;;6.32;1.40;;;;;;;24.72;47.78;99394.28;5129864;27;20051;-76
2022/05/19 07:58:29;;;;;;;7.60;1.38;;;;;;;24.79;46.58;99388.44;5134432;27;20046;-76
2022/05/19 08:00:55;;;;;;;13.80;2.13;;;;;;;24.59;46.63;99383.66;5134202;27;20466;-76
2022/05/19 08:03:23;;;;;;;10.10;2.00;;;;;;;24.69;46.43;99364.25;5133284;27;20043;-76
2022/05/19 08:05:50;;;;;;;10.15;1.45;;;;;;;24.61;45.37;99391.72;5123257;27;20048;-77
2022/05/19 08:08:17;;;;;;;4.07;1.60;;;;;;;24.74;47.25;99368.97;5120028;27;20485;-76
2022/05/19 08:10:44;;;;;;;7.82;1.60;;;;;;;24.37;45.13;99381.88;5133957;27;20054;-76
2022/05/19 08:15:56;;;;;;;1.90;1.48;;;;;;;25.04;46.05;99393.22;5135695;27;20088;-76
2022/05/19 08:18:25;;;;;;;3.45;1.75;;;;;;;25.08;44.84;99386.03;5135908;27;20058;-76
2022/05/19 08:20:53;;;;;;;6.50;2.03;;;;;;;24.99;45.55;99378.47;5132009;27;20131;-76
2022/05/19 08:23:23;;;;;;;5.93;1.70;;;;;;;25.44;46.13;99394.44;5123836;27;20555;-76
2022/05/19 08:25:49;;;;;;;6.20;2.20;;;;;;;25.17;45.63;99391.88;5128554;27;20054;-76
2022/05/19 08:28:19;;;;;;;4.07;2.05;;;;;;;25.26;45.86;99378.22;5133432;27;20490;-76
2022/05/19 08:30:47;;;;;;;5.75;1.85;;;;;;;25.17;46.70;99400.22;5131925;27;20043;-76
2022/05/19 08:33:14;;;;;;;4.07;1.77;;;;;;;25.40;46.42;99389.72;5132788;27;20108;-76
2022/05/19 08:35:41;;;;;;;16.02;2.45;;;;;;;25.43;46.26;99392.75;5133417;27;20482;-77
2022/05/19 08:38:08;;;;;;;7.75;1.65;;;;;;;25.34;45.44;99374.94;5133269;27;20055;-76
2022/05/19 08:40:38;;;;;;;5.35;2.10;;;;;;;25.16;45.85;99364.34;5125436;27;20051;-76
2022/05/19 08:43:05;;;;;;;8.77;2.00;;;;;;;25.42;45.15;99376.34;5111811;28;20048;-76
2022/05/19 08:45:39;;;;;;;6.10;1.70;;;;;;;25.35;45.69;99359.94;5118643;27;20043;-76
2022/05/19 08:48:10;;;;;;;4.57;1.75;;;;;;;25.57;46.06;99375.50;5132215;27;20375;-76
2022/05/19 08:50:44;;;;;;;4.10;1.92;;;;;;;25.78;43.00;99379.09;5133158;27;20061;-77
2022/05/19 08:53:12;;;;;;;2.33;1.50;;;;;;;25.85;46.38;99368.50;5132184;27;20043;-77
2022/05/19 08:55:41;;;;;;;7.93;1.88;;;;;;;26.12;48.36;99384.91;5131011;27;20334;-76
2022/05/19 08:58:19;;;;;;;5.60;1.77;;;;;;;25.99;46.11;99362.41;5129306;27;20504;-76
2022/05/19 09:00:52;;;;;;;6.00;1.60;;;;;;;25.81;44.81;99384.09;5131330;27;20047;-77
2022/05/19 09:03:24;;;;;;;3.45;1.83;;;;;;;25.94;44.98;99379.91;5116147;27;20473;-77
2022/05/19 09:06:09;;;;;;;4.78;1.77;;;;;;;26.03;44.17;99385.75;5121288;27;20058;-77
2022/05/19 09:08:48;;;;;;;4.97;2.05;;;;;;;25.99;45.48;99376.31;5113838;27;20051;-76
2022/05/19 09:11:19;;;;;;;5.93;1.80;;;;;;;26.05;44.39;99369.63;5131604;27;20043;-77
2022/05/19 09:13:53;;;;;;;8.98;1.85;;;;;;;26.22;48.08;99360.94;5115178;27;20044;-77
2022/05/19 09:16:24;;;;;;;10.55;2.10;;;;;;;26.46;45.97;99381.44;5112433;28;20052;-77
2022/05/19 09:18:55;;;;;;;8.85;1.90;;;;;;;26.46;47.74;99366.69;5111751;28;20048;-77
2022/05/19 09:21:22;;;;;;;6.72;2.00;;;;;;;26.58;46.11;99380.28;5122214;27;20058;-77
2022/05/19 09:23:48;;;;;;;11.80;2.70;;;;;;;26.58;44.53;99358.81;5129962;27;20051;-77
2022/05/19 09:26:32;;;;;;;1.95;1.50;;;;;;;27.00;45.66;99357.50;5131158;27;20043;-76
2022/05/19 09:29:02;;;;;;;3.50;1.77;;;;;;;26.96;41.52;99373.16;5124695;27;20494;-77
2022/05/19 09:31:39;;;;;;;5.25;1.90;;;;;;;27.10;44.02;99370.56;5131097;27;20058;-77
2022/05/19 09:34:07;;;;;;;17.48;2.28;;;;;;;26.94;44.73;99360.63;5129855;27;20051;-76
2022/05/19 09:36:38;;;;;;;10.02;2.38;;;;;;;27.06;44.09;99368.63;5128755;27;20514;-77
2022/05/19 09:39:09;;;;;;;7.13;2.20;;;;;;;27.30;45.21;99351.97;5125725;27;20047;-76
2022/05/19 09:41:40;;;;;;;4.03;1.95;;;;;;;27.23;41.62;99345.91;5127588;27;20047;-77
2022/05/19 09:44:12;;;;;;;5.63;2.03;;;;;;;27.53;45.03;99353.22;5133521;27;20502;-76
2022/05/19 09:46:42;;;;;;;6.15;2.38;;;;;;;27.50;42.83;99351.81;5125436;27;20050;-77
2022/05/19 09:49:27;;;;;;;12.35;2.63;;;;;;;27.62;40.51;99350.63;5131560;27;20061;-77
2022/05/19 09:51:59;;;;;;;15.68;2.15;;;;;;;27.69;40.78;99362.28;5133205;27;20055;-77
2022/05/19 09:54:25;;;;;;;8.68;2.08;;;;;;;27.53;42.71;99356.81;5133015;27;20069;-77
2022/05/19 09:56:54;;;;;;;8.35;2.10;;;;;;;27.62;40.80;99364.59;5132864;27;20043;-77
2022/05/19 09:59:24;;;;;;;4.40;2.08;;;;;;;27.58;38.41;99358.75;5121092;27;20043;-77
2022/05/19 10:02:05;;;;;;;9.23;1.85;;;;;;;27.71;40.86;99363.63;5110992;28;20512;-78
2022/05/19 10:04:39;;;;;;;9.68;2.15;;;;;;;27.94;39.51;99369.56;5115274;27;20048;-77
2022/05/19 10:07:09;;;;;;;15.48;1.67;;;;;;;28.03;40.80;99373.44;5110884;28;20055;-77
2022/05/19 10:09:42;;;;;;;12.88;2.42;;;;;;;28.08;40.10;99359.38;5127103;27;20051;-77
2022/05/19 10:12:12;;;;;;;4.65;1.90;;;;;;;28.27;43.17;99358.59;5116242;27;20551;-77
2022/05/19 10:14:40;;;;;;;11.07;2.10;;;;;;;28.53;43.13;99375.06;5111043;28;20052;-77
2022/05/19 10:17:15;;;;;;;10.02;1.80;;;;;;;28.46;38.90;99353.06;5111028;28;20074;-77
2022/05/19 10:19:53;;;;;;;7.70;2.17;;;;;;;28.30;38.17;99348.81;5119627;27;20050;-77
2022/05/19 10:22:32;;;;;;;8.55;2.50;;;;;;;28.19;39.52;99370.47;5124483;27;20054;-77
2022/05/19 10:25:17;;;;;;;4.57;1.95;;;;;;;28.17;39.74;99364.31;5111116;28;20079;-77
2022/05/19 10:31:04;;;;;;;5.28;1.85;;;;;;;28.63;38.55;99352.59;5126568;27;20406;-77
2022/05/19 10:33:48;;;;;;;4.35;1.83;;;;;;;28.76;41.58;99346.25;5130050;27;20047;-77
2022/05/19 10:36:22;;;;;;;10.57;2.20;;;;;;;29.01;40.40;99337.78;5131360;27;20494;-78
2022/05/19 10:39:09;;;;;;;4.68;2.10;;;;;;;29.13;39.13;99338.16;5131673;27;20054;-79
2022/05/19 10:41:48;;;;;;;4.53;2.00;;;;;;;29.16;39.62;99312.34;5131487;27;20479;-77
2022/05/19 10:44:24;;;;;;;;;;;;;;;29.26;39.35;99337.41;5126047;27;20050;-77
2022/05/19 10:46:58;;;;;;;5.88;2.10;;;;;;;29.18;39.37;99326.03;5113027;27;20367;-77
2022/05/19 10:49:48;;;;;;;5.82;2.03;;;;;;;29.48;40.29;99325.56;5122555;27;20047;-78
2022/05/19 10:52:20;;;;;;;;;;;;;;;29.80;39.82;99328.66;5128493;27;20509;-78
2022/05/19 10:55:01;;;;;;;15.15;7.82;;;;;;;29.95;39.87;99319.16;5128179;28;19919;-78
2022/05/19 10:57:44;;;;;;;6.28;2.35;;;;;;;29.64;36.97;99312.13;5124348;27;20494;-78
2022/05/19 11:00:17;;;;;;;5.43;2.15;;;;;;;29.82;37.95;99299.22;5130920;27;20051;-78
2022/05/19 11:03:11;;;;;;;2.83;1.75;;;;;;;30.04;39.36;99319.25;5121548;27;20046;-78
2022/05/19 11:05:49;;;;;;;3.53;2.00;;;;;;;29.70;36.86;99298.00;5110424;28;20488;-78
2022/05/19 11:08:26;;;;;;;9.20;2.45;;;;;;;29.99;36.48;99315.41;5110985;28;20051;-78
2022/05/19 11:10:59;;;;;;;4.43;2.08;;;;;;;30.22;38.58;99312.72;5110494;28;20048;-78
2022/05/19 11:13:40;;;;;;;5.30;1.95;;;;;;;30.15;39.21;99290.69;5109963;28;20125;-78
2022/05/19 11:16:15;;;;;;;10.40;2.13;;;;;;;30.34;38.28;99299.00;5110778;28;20058;-78
2022/05/19 11:18:52;;;;;;;4.75;1.70;;;;;;;30.23;37.79;99291.94;5115737;27;20039;-78
2022/05/19 11:21:26;;;;;;;4.30;1.85;;;;;;;30.30;39.18;99291.50;5121928;27;20050;-78
2022/05/19 11:23:57;;;;;;;6.65;1.95;;;;;;;30.59;38.44;99308.00;5113204;28;20066;-78
2022/05/19 11:26:27;;;;;;;5.75;2.00;;;;;;;30.44;37.36;99288.72;5114435;28;20052;-78
2022/05/19 11:29:02;;;;;;;4.28;1.80;;;;;;;30.32;36.30;99306.03;5114257;28;20055;-78
2022/05/19 11:31:36;;;;;;;6.18;2.13;;;;;;;30.76;37.71;99315.78;5114486;28;20101;-78
2022/05/19 11:34:15;;;;;;;7.88;2.17;;;;;;;30.75;36.75;99302.88;5113266;28;20070;-78
2022/05/19 11:36:52;;;;;;;6.13;2.53;;;;;;;30.66;37.32;99287.94;5113976;28;20478;-78
2022/05/19 11:39:24;;;;;;;7.63;2.50;;;;;;;30.96;38.15;99308.84;5114421;28;20278;-78
2022/05/19 11:41:54;;;;;;;9.43;2.17;;;;;;;30.95;38.21;99306.34;5113823;28;20048;-78
2022/05/19 11:44:27;;;;;;;5.30;2.17;;;;;;;31.12;37.92;99291.66;5113669;28;20067;-78
2022/05/19 11:47:01;;;;;;;6.00;2.03;;;;;;;30.92;37.48;99273.31;5114125;28;20051;-78
2022/05/19 11:55:18;;;;;;;4.18;2.42;;;;;;;31.29;36.22;99293.78;5113654;28;20108;-78
2022/05/19 11:57:52;;;;;;;7.97;2.28;;;;;;;31.48;35.20;99271.06;5113763;28;20383;-78
2022/05/19 12:00:26;;;;;;;4.55;1.63;;;;;;;31.65;36.17;99267.56;5113937;28;20134;-78
2022/05/19 12:02:57;;;;;;;7.85;2.10;;;;;;;31.83;36.69;99272.09;5112973;28;20131;-78
2022/05/19 12:05:31;;;;;;;6.72;2.83;;;;;;;31.86;36.36;99291.13;5113809;28;20051;-79
2022/05/19 12:08:07;;;;;;;7.88;2.20;;;;;;;31.66;36.09;99250.38;5125984;27;20508;-78
2022/05/19 12:10:37;;;;;;;4.22;2.15;;;;;;;31.53;34.16;99248.47;5128056;27;20088;-78
2022/05/19 12:13:06;;;;;;;3.85;2.10;;;;;;;31.45;35.79;99266.94;5132815;27;20151;-78
2022/05/19 12:15:40;;;;;;;5.13;2.30;;;;;;;31.53;36.90;99259.72;5133504;27;20259;-78
2022/05/19 12:18:12;;;;;;;4.68;2.00;;;;;;;31.38;37.33;99250.53;5133430;27;20533;-78
2022/05/19 12:20:55;;;;;;;3.05;2.30;;;;;;;31.50;36.01;99257.56;5132704;27;20047;-78
2022/05/19 12:23:27;;;;;;;4.25;2.35;;;;;;;31.82;36.57;99244.34;5132739;27;20051;-77
2022/05/19 12:25:58;;;;;;;9.55;1.80;;;;;;;32.05;35.44;99261.94;5131914;27;20401;-77
2022/05/19 12:28:33;;;;;;;6.32;1.98;;;;;;;32.16;33.55;99266.13;5124481;27;20163;-77
2022/05/19 12:34:02;;;;;;;6.18;1.90;;;;;;;32.02;33.90;99256.94;5048678;28;20053;-77
2022/05/19 12:36:38;;;;;;;5.63;2.33;;;;;;;31.90;33.77;99251.94;5050054;28;20394;-77
2022/05/19 12:39:28;;;;;;;6.78;2.45;;;;;;;31.96;34.85;99245.03;5091490;27;20054;-78
2022/05/19 12:41:56;;;;;;;5.63;2.40;;;;;;;32.13;34.47;99241.47;5132902;27;20062;-77
2022/05/19 12:44:29;;;;;;;4.75;1.88;;;;;;;32.25;35.56;99241.66;5117369;27;20046;-77
2022/05/19 12:47:04;;;;;;;5.60;2.08;;;;;;;32.31;34.36;99236.72;5112220;28;20457;-77
2022/05/19 12:49:35;;;;;;;5.97;2.10;;;;;;;32.58;34.42;99232.78;5112194;28;20055;-77
2022/05/19 12:52:08;;;;;;;5.25;2.17;;;;;;;32.60;33.05;99226.81;5111706;28;20517;-77
2022/05/19 12:54:37;;;;;;;5.10;2.45;;;;;;;32.34;35.00;99215.53;5111980;28;20043;-77
2022/05/19 12:57:29;;;;;;;5.35;2.20;;;;;;;32.33;33.96;99234.41;5122087;27;20043;-77
2022/05/19 13:00:06;;;;;;;5.00;2.50;;;;;;;32.24;32.76;99222.31;5114816;27;20047;-77
2022/05/19 13:02:40;;;;;;;9.77;2.78;;;;;;;32.50;34.68;99204.63;5111766;28;20104;-77
2022/05/19 13:05:17;;;;;;;6.05;2.72;;;;;;;32.59;33.29;99186.56;5112530;28;20490;-77
2022/05/19 13:07:50;;;;;;;10.48;2.53;;;;;;;32.54;33.99;99197.19;5112568;28;20054;-77
2022/05/19 13:10:21;;;;;;;7.38;2.40;;;;;;;32.38;32.66;99211.72;5112643;28;20051;-76
2022/05/19 13:12:58;;;;;;;6.28;2.38;;;;;;;32.39;33.07;99190.06;5115410;27;20053;-77
2022/05/19 13:15:27;;;;;;;5.43;2.10;;;;;;;32.02;33.42;99192.28;5112180;28;20040;-77
2022/05/19 13:17:56;;;;;;;5.47;2.50;;;;;;;32.42;32.98;99217.53;5112039;28;20049;-77
2022/05/19 13:20:27;;;;;;;5.47;2.17;;;;;;;32.77;33.58;99198.69;5111365;28;20452;-77
2022/05/19 13:22:59;;;;;;;5.38;1.98;;;;;;;32.94;33.20;99186.59;5117174;27;20043;-77
2022/05/19 13:25:28;;;;;;;3.78;2.28;;;;;;;32.71;32.33;99191.56;5124084;27;20039;-77
2022/05/19 13:30:54;;;;;;;5.97;2.17;;;;;;;32.71;32.92;99191.56;5132608;27;20058;-77
2022/05/19 13:33:23;;;;;;;3.00;2.20;;;;;;;31.90;34.26;99195.72;5131659;27;20062;-77
2022/05/19 13:35:59;;;;;;;5.90;1.80;;;;;;;32.26;33.23;99186.25;5132153;27;20493;-77
2022/05/19 13:38:25;;;;;;;4.40;2.40;;;;;;;32.88;33.40;99196.38;5132379;27;20383;-77
2022/05/19 13:40:55;;;;;;;6.78;2.15;;;;;;;33.18;33.63;99199.28;5112970;27;20066;-77
2022/05/19 13:43:25;;;;;;;4.20;1.80;;;;;;;32.47;33.84;99176.00;5110723;28;20132;-77
2022/05/19 13:45:54;;;;;;;5.55;2.10;;;;;;;32.52;33.89;99176.97;5111607;28;20044;-77
2022/05/19 13:48:32;;;;;;;8.33;2.07;;;;;;;32.22;33.48;99171.19;5111738;28;20056;-77
2022/05/19 13:51:05;;;;;;;4.70;1.83;;;;;;;32.28;34.13;99176.31;5111850;28;20289;-77
2022/05/19 13:53:34;;;;;;;5.82;2.00;;;;;;;31.97;33.63;99170.78;5111006;28;20078;-77
2022/05/19 13:56:02;;;;;;;;;;;;;;;32.04;33.64;99185.19;5120398;27;20505;-77
2022/05/19 13:58:29;;;;;;;8.38;2.05;;;;;;;32.17;34.19;99163.72;5123552;27;19923;-77
2022/05/19 14:00:56;;;;;;;5.28;2.17;;;;;;;32.26;33.85;99169.38;5132051;27;20410;-77
2022/05/19 14:03:24;;;;;;;5.60;2.38;;;;;;;32.13;35.75;99156.28;5131443;27;20047;-77
2022/05/19 14:05:53;;;;;;;9.23;2.60;;;;;;;32.12;35.05;99152.66;5131674;27;20504;-76
2022/05/19 14:08:23;;;;;;;8.40;1.95;;;;;;;32.45;33.40;99169.06;5131911;27;20387;-76
2022/05/19 14:10:50;;;;;;;;;;;;;;;32.10;33.45;99167.03;5132190;27;20061;-76
2022/05/19 14:13:22;;;;;;;12.25;2.67;;;;;;;31.97;35.71;99165.16;5117124;27;19924;-77
2022/05/19 14:15:52;;;;;;;4.57;2.25;;;;;;;32.31;35.10;99159.94;5111087;28;20052;-76
2022/05/19 14:18:23;;;;;;;6.28;2.33;;;;;;;32.61;34.07;99133.63;5111415;28;20141;-76
2022/05/19 14:20:52;;;;;;;7.22;2.00;;;;;;;32.88;32.95;99151.34;5111173;28;20418;-76
2022/05/19 14:23:22;;;;;;;5.43;2.20;;;;;;;32.74;33.63;99134.63;5110517;28;20079;-76
2022/05/19 14:25:52;;;;;;;3.55;2.40;;;;;;;33.14;32.70;99136.34;5111152;28;20048;-76
2022/05/19 14:28:26;;;;;;;4.88;2.47;;;;;;;33.11;32.13;99137.84;5120039;27;20536;-76
2022/05/19 14:30:55;;;;;;;4.75;2.45;;;;;;;33.23;32.48;99134.34;5113839;28;20134;-76
2022/05/19 14:33:27;;;;;;;6.68;2.20;;;;;;;33.01;34.09;99110.03;5110373;28;20051;-76
2022/05/19 14:35:59;;;;;;;9.05;2.58;;;;;;;33.45;32.65;99135.25;5110759;28;20086;-77
2022/05/19 14:38:31;;;;;;;3.50;2.40;;;;;;;33.58;32.16;99119.28;5111219;28;20054;-76
2022/05/19 14:43:51;;;;;;;7.43;2.50;;;;;;;33.49;34.16;99124.97;5116267;27;20502;-77
2022/05/19 14:46:21;;;;;;;7.80;2.17;;;;;;;32.78;33.81;99124.34;5115279;27;20039;-77
2022/05/19 14:48:50;;;;;;;6.88;2.38;;;;;;;32.93;33.79;99106.09;5106920;28;20112;-77
2022/05/19 14:51:22;;;;;;;6.75;2.47;;;;;;;33.24;34.27;99121.94;5107278;28;20489;-77
2022/05/19 14:53:49;;;;;;;5.88;2.72;;;;;;;32.86;32.96;99114.22;5106215;28;20048;-76
2022/05/19 14:56:20;;;;;;;3.35;2.42;;;;;;;32.75;34.48;99099.69;5111545;28;20051;-76
2022/05/19 14:58:52;;;;;;;3.35;2.22;;;;;;;32.84;33.26;99102.50;5112068;27;20127;-76
2022/05/19 15:01:19;;;;;;;2.88;1.70;;;;;;;33.26;33.69;99101.88;5104486;28;20053;-77
2022/05/19 15:03:46;;;;;;;5.20;2.33;;;;;;;33.36;32.84;99103.47;5104276;27;20062;-76
2022/05/19 15:06:13;;;;;;;4.78;2.20;;;;;;;33.59;33.49;99126.56;5102672;27;20436;-77
2022/05/19 15:08:39;;;;;;;7.15;2.20;;;;;;;33.42;33.67;99124.66;5102651;27;21041;-77
2022/05/19 15:11:06;;;;;;;6.60;2.35;;;;;;;33.27;35.44;99104.34;5101992;27;20055;-77
2022/05/19 15:13:33;;;;;;;9.32;1.88;;;;;;;33.24;33.31;99102.22;5101278;27;20047;-77
2022/05/19 15:16:01;;;;;;;4.88;2.10;;;;;;;33.41;33.82;99106.94;5104464;27;20040;-76
2022/05/19 15:18:28;;;;;;;5.45;2.00;;;;;;;33.08;33.35;99118.81;5105445;27;20051;-76
2022/05/19 15:20:54;;;;;;;5.78;2.13;;;;;;;33.24;32.68;99118.28;5100578;27;20058;-77
2022/05/19 15:23:21;;;;;;;7.28;2.00;;;;;;;33.39;32.86;99108.44;5101749;28;20048;-77
2022/05/19 15:25:47;;;;;;;6.88;2.45;;;;;;;33.37;33.62;99099.50;5111393;27;20054;-77
2022/05/19 15:28:15;;;;;;;3.55;2.38;;;;;;;33.04;33.59;99091.66;5102311;27;20062;-76
2022/05/19 15:30:42;;;;;;;8.30;3.08;;;;;;;33.20;34.34;99106.03;5101242;27;20060;-76
2022/05/19 15:33:10;;;;;;;10.77;2.67;;;;;;;33.24;34.71;99110.66;5102245;27;20055;-76
2022/05/19 15:35:36;;;;;;;5.95;2.22;;;;;;;32.89;34.11;99088.22;5105608;28;20130;-77
2022/05/19 15:38:03;;;;;;;5.10;2.17;;;;;;;33.07;33.99;99085.34;5100428;27;20079;-77
2022/05/19 15:40:30;;;;;;;4.20;1.98;;;;;;;32.44;33.51;99108.31;5101298;27;20056;-76
2022/05/19 15:42:57;;;;;;;3.95;2.38;;;;;;;32.90;33.08;99111.59;5105433;27;20043;-77
2022/05/19 15:45:24;;;;;;;5.70;2.17;;;;;;;33.28;33.73;99096.72;5104728;27;20505;-77
2022/05/19 15:47:52;;;;;;;4.65;2.90;;;;;;;33.27;32.57;99100.69;5104182;27;20062;-76
2022/05/19 15:50:23;;;;;;;5.25;2.65;;;;;;;32.81;32.34;99089.09;5110419;27;20052;-77
2022/05/19 15:52:53;;;;;;;3.35;2.40;;;;;;;33.14;32.47;99111.00;5101596;27;20047;-76
2022/05/19 15:55:20;;;;;;;5.38;2.45;;;;;;;33.01;31.94;99103.59;5101254;27;20052;-77
2022/05/19 15:57:48;;;;;;;4.00;2.45;;;;;;;32.97;32.41;99104.28;5111294;27;20051;-77
2022/05/19 16:00:15;;;;;;;3.55;1.80;;;;;;;33.02;31.95;99108.88;5104053;27;20052;-77
2022/05/19 16:02:47;;;;;;;6.90;2.13;;;;;;;33.25;32.15;99131.19;5097933;27;20052;-76
2022/05/19 16:05:15;;;;;;;9.90;2.47;;;;;;;32.76;32.38;99106.13;5100902;27;20437;-76
2022/05/19 16:07:43;;;;;;;5.47;2.30;;;;;;;33.00;31.52;99105.56;5109397;27;20053;-76
2022/05/19 16:10:12;;;;;;;6.82;2.17;;;;;;;32.63;32.48;99105.16;5114408;27;20066;-76
2022/05/19 16:12:39;;;;;;;6.68;2.53;;;;;;;32.46;32.63;99129.34;5104456;27;20786;-76
2022/05/19 16:15:08;;;;;;;8.23;2.35;;;;;;;32.15;33.14;99112.63;5108389;27;20050;-76
2022/05/19 16:17:35;;;;;;;5.90;2.40;;;;;;;32.24;32.09;99121.88;5102464;28;20140;-76
2022/05/19 16:20:02;;;;;;;4.45;2.38;;;;;;;31.91;33.16;99119.50;5099582;27;20059;-77
2022/05/19 16:22:31;;;;;;;6.07;2.60;;;;;;;31.69;33.95;99126.09;5103540;27;20065;-76
2022/05/19 16:25:01;;;;;;;4.43;2.10;;;;;;;31.50;33.63;99106.69;5102993;27;20047;-76
2022/05/19 16:27:29;;;;;;;8.88;2.33;;;;;;;31.18;34.47;99100.28;5104114;27;20517;-76
2022/05/19 16:29:56;;;;;;;7.40;2.50;;;;;;;31.05;34.87;99116.06;5112115;27;20054;-76
2022/05/19 16:32:23;;;;;;;6.20;2.42;;;;;;;31.04;35.73;99113.59;5102355;27;20050;-76
2022/05/19 16:34:50;;;;;;;5.80;2.22;;;;;;;30.68;35.68;99101.34;5099489;27;20383;-76
2022/05/19 16:37:22;;;;;;;4.30;2.40;;;;;;;30.65;36.48;99112.34;5101735;27;20293;-77
2022/05/19 16:39:49;;;;;;;6.95;2.40;;;;;;;30.38;37.06;99100.06;5100690;27;20290;-76
2022/05/19 16:42:17;;;;;;;4.90;2.22;;;;;;;30.41;39.61;99095.84;5104526;27;20047;-75
2022/05/19 16:44:44;;;;;;;5.53;2.80;;;;;;;30.34;41.90;99118.72;5104693;27;20078;-76
2022/05/19 16:47:11;;;;;;;3.17;2.33;;;;;;;29.82;43.49;99102.25;5101258;27;20044;-76
2022/05/19 16:49:39;;;;;;;3.65;2.35;;;;;;;29.34;46.80;99063.50;5107241;27;20430;-76
2022/05/19 16:52:07;;;;;;;7.03;2.65;;;;;;;29.11;46.23;99086.56;5102892;27;20051;-77
2022/05/19 17:00:08;;;;;;;13.65;2.97;;;;;;;28.36;43.88;99168.69;5105469;27;20104;-77
2022/05/19 17:02:35;;;;;;;18.38;2.85;;;;;;;27.12;42.76;99153.44;5098513;27;20500;-77
2022/05/19 17:05:01;;;;;;;15.52;2.53;;;;;;;26.20;45.24;99155.03;5108368;27;20517;-76
2022/05/19 17:07:28;;;;;;;12.73;2.33;;;;;;;25.58;45.14;99146.97;5104612;27;20118;-77
2022/05/19 17:09:54;;;;;;;5.28;1.55;;;;;;;24.44;49.22;99161.28;5102800;27;20044;-80
2022/05/19 17:12:23;;;;;;;6.97;2.05;;;;;;;23.28;53.15;99173.38;5102178;27;20059;-76
2022/05/19 17:14:50;;;;;;;7.57;2.43;;;;;;;22.82;56.60;99212.66;5103816;27;20561;-76
2022/05/19 17:17:18;;;;;;;7.57;2.80;;;;;;;22.56;60.01;99239.31;5102087;27;20052;-77
2022/05/19 17:19:45;;;;;;;7.68;2.28;;;;;;;22.23;60.83;99241.97;5098469;27;20534;-76
2022/05/19 17:22:12;;;;;;;5.18;3.17;;;;;;;21.58;74.55;99242.84;5101424;27;20048;-76
2022/05/19 17:24:39;;;;;;;7.30;3.58;;;;;;;21.00;79.75;99221.78;5103607;27;20100;-81
2022/05/19 17:27:06;;;;;;;5.30;2.95;;;;;;;21.10;82.19;99221.09;5101075;27;20055;-76
2022/05/19 17:29:34;;;;;;;8.20;3.05;;;;;;;21.35;82.21;99225.34;5107668;27;20509;-81
2022/05/19 17:32:00;;;;;;;10.13;4.32;;;;;;;21.60;85.69;99262.75;5109971;27;20052;-80
2022/05/19 17:34:27;;;;;;;11.57;3.25;;;;;;;21.29;93.84;99290.78;5104411;27;20462;-80
2022/05/19 17:36:53;;;;;;;16.05;4.25;;;;;;;20.86;100.00;99323.47;5099866;27;20050;-76
2022/05/19 17:39:20;;;;;;;19.45;4.72;;;;;;;20.17;100.00;99331.78;5108164;27;20066;-75
2022/05/19 17:41:46;;;;;;;30.38;5.85;;;;;;;20.24;100.00;99328.91;5105729;27;20497;-77
2022/05/19 17:44:13;;;;;;;13.50;4.28;;;;;;;19.15;100.00;99289.75;5105315;27;20059;-78
2022/05/19 17:46:41;;;;;;;27.42;5.60;;;;;;;18.88;100.00;99286.59;5109862;28;20039;-77
2022/05/19 17:49:08;;;;;;;8.02;4.70;;;;;;;18.81;100.00;99270.13;5109523;28;20522;-77
2022/05/19 17:51:34;;;;;;;10.02;4.50;;;;;;;18.35;100.00;99256.00;5116596;27;20047;-76
2022/05/19 17:54:00;;;;;;;8.07;4.95;;;;;;;18.27;100.00;99248.06;5108551;28;20403;-76
2022/05/19 17:56:29;;;;;;;11.82;6.05;;;;;;;18.50;100.00;99251.97;5107853;28;21034;-77
2022/05/19 17:58:55;;;;;;;7.20;4.60;;;;;;;18.78;100.00;99240.31;5108785;28;20050;-77
2022/05/19 18:01:22;;;;;;;11.73;5.40;;;;;;;19.15;100.00;99237.41;5108853;28;20138;-74
2022/05/19 18:03:50;;;;;;;9.10;5.68;;;;;;;19.30;100.00;99247.09;5108324;28;20052;-74
2022/05/19 18:06:18;;;;;;;10.65;5.30;;;;;;;19.38;100.00;99250.31;5109266;27;20071;-76
2022/05/19 18:08:44;;;;;;;9.80;5.25;;;;;;;19.36;100.00;99258.00;5119234;27;20054;-76
2022/05/19 18:11:13;;;;;;;10.05;4.97;;;;;;;19.44;100.00;99246.59;5111602;27;20047;-76
2022/05/19 18:13:39;;;;;;;12.43;5.00;;;;;;;19.61;100.00;99266.00;5107765;28;20047;-76
2022/05/19 18:18:52;;;;;;;11.48;5.18;;;;;;;19.80;100.00;99283.28;5108844;28;20063;-77
2022/05/19 18:21:19;;;;;;;13.48;5.28;;;;;;;19.85;100.00;99287.22;5108911;28;20047;-76
2022/05/19 18:23:45;;;;;;;13.30;6.10;;;;;;;19.79;100.00;99283.53;5107443;28;20058;-77
2022/05/19 18:26:15;;;;;;;11.27;4.60;;;;;;;19.74;100.00;99308.22;5107758;28;20078;-77
2022/05/19 18:28:44;;;;;;;14.80;5.60;;;;;;;19.61;100.00;99304.59;5119863;27;20039;-76
2022/05/19 18:31:11;;;;;;;9.50;4.70;;;;;;;19.47;100.00;99308.69;5129121;27;20051;-77
2022/05/19 18:33:38;;;;;;;22.73;5.47;;;;;;;19.32;100.00;99292.63;5129118;27;20074;-76
2022/05/19 18:36:07;;;;;;;12.02;6.40;;;;;;;19.32;100.00;99300.91;5128808;28;20062;-77
2022/05/19 18:38:34;;;;;;;13.82;5.18;;;;;;;19.38;100.00;99310.97;5129158;28;20043;-76
2022/05/19 18:46:29;;;;;;;11.10;4.93;;;;;;;19.36;100.00;99298.50;5108551;28;20058;-77
2022/05/19 18:48:56;;;;;;;17.73;5.07;;;;;;;19.46;100.00;99295.97;5108550;28;20054;-77
2022/05/19 18:51:26;;;;;;;10.25;4.75;;;;;;;19.40;100.00;99299.69;5108275;28;20055;-77
2022/05/19 18:53:52;;;;;;;10.00;5.13;;;;;;;19.33;100.00;99308.09;5107449;28;20057;-77
2022/05/19 18:56:21;;;;;;;11.68;4.85;;;;;;;19.23;100.00;99316.13;5106996;28;20047;-76